AirNav   Pilot Hours Calculator
 
 1005 users online  

61CO Monument Helibase
Monument, Colorado, USA

GOING TO MONUMENT?


FAA INFORMATION EFFECTIVE 08 SEPTEMBER 2022

Location

FAA Identifier: 61CO
Lat/Long: 39-05-09.0000N 104-54-10.0000W
39-05.150000N 104-54.166667W
39.0858333,-104.9027778
(estimated)
Elevation: 7120 ft. / 2170 m (estimated)
Variation: 10E (2000)
From city: 3 miles NE of MONUMENT, CO
Time zone: UTC -6 (UTC -7 during Standard Time)
Zip code: 80921

Heliport Operations

Heliport use: Private use. Permission required prior to landing
Activation date: 07/2002
Control tower: no
ARTCC: DENVER CENTER
FSS: DENVER FLIGHT SERVICE STATION
Attendance: UNATNDD
Wind indicator: yes
Segmented circle: no

Heliport Communications

WX AWOS-3PT at FLY (18 nm SE): 118.450 (719-683-5371)
WX ASOS at COS (19 nm SE): PHONE 719-380-6748

Nearby radio navigation aids

VOR radial/distance  VOR name  Freq  Var
BRKr296/15.2BLACK FOREST VOR/DME112.5008E
FCSr332/25.2BUTTS VOR/DME108.8012E
FQFr189/38.5FALCON VORTAC116.3011E

 
NDB name  Hdg/Dist  Freq  Var  ID
IRONHORSE336/25.433508EIHS .. .... ...

Heliport Services

Runway Information

Helipad H1

Dimensions: 20 x 20 ft. / 6 x 6 m
Surface: concrete
Traffic pattern: leftleft

Heliport Ownership and Management from official FAA records

Ownership: Publicly-owned
Owner: USDA FOREST SERVICE
601 SOUTH WEBER
COLORADO SPRINGS, CO 80903
Phone 719-636-1602
Manager: USDA FOREST SERVICE
601 SOUTH WEBER
COLORADO SPRINGS, CO 80903
Phone 719-487-8107
OR: 3751 MT. HERMAN ROAD MONUMENT, CO 80132

Heliport Operational Statistics

Aircraft based on the field: 1
Helicopters: 1
    

Additional Remarks

USFS HELIBASE UTILIZED BY THE MONUMENT HELITRACK CREW
FOR CD CTC COLORADO SPRINGS APCH AT 719-556-9105.

Instrument Procedures

There are no published instrument procedures at 61CO.

Some nearby airports with instrument procedures:

KCOS - City of Colorado Springs Municipal Airport (19 nm SE)
KAPA - Centennial Airport (29 nm N)
KBKF - Buckley Space Force Base (38 nm N)
1V6 - Fremont County Airport (41 nm S)
KCFO - Colorado Air and Space Port Airport (45 nm N)
 
Loc | Ops | Rwys | IFR | FBO | Links
Com | Nav | Svcs | Stats | Notes

AirBoss

 
Area around 61CO (Monument Helibase)
 
Road maps at: MapQuest Bing Google
 
Aerial photo
No photo
 
Sectional chart

 
Airport distance calculator
Flying to Monument Helibase? Find the distance to fly.

From to 61CO

Sunrise and sunset
Times for 24-Sep-2022
 Local
(UTC-6)
 Zulu
(UTC)
Morning civil twilight06:2312:23
Sunrise06:5012:50
Sunset18:5300:53
Evening civil twilight19:2001:20

Current date and time
Zulu (UTC)  25-Sep-2022 00:17:14
Local (UTC-6)  24-Sep-2022 18:17:14
 
METAR
KAFF 
8nm SE 
242356Z AUTO 03012KT 10SM CLR 25/M08 A3022 RMK AO2 SLP169 T02461078 10257 20229 53001
KMNH 
15nm NE 
242355Z AUTO 02010KT 10SM CLR 21/M06 A3032 RMK AO2
KFLY 
18nm SE 
242355Z AUTO 04010KT CLR 24/M04 A3029 RMK AO2 T02381044 10262 20220 PWINO
KCOS 
18nm SE 
242354Z 10006KT 10SM CLR 26/M01 A3022 RMK AO2 SLP162 T02611011 10278 20244 55000
TAF
KAFF 
8nm SE 
242031Z 2419/2601 12012KT 9999 SKC 520006 QNH3019INS WND 060V210 BECMG 2501/2502 35009KT 9999 FEW080 QNH3021INS BECMG 2507/2508 02015KT 9999 VCSH FEW045 SCT060 QNH3030INS BECMG 2510/2511 36009KT 9999 NSW FEW070 QNH3036INS BECMG 2516/2517 14018KT 9999 FEW100 QNH3044INS BECMG 2518/2519 16015G25KT 9999 FEW080 FEW180 520006 QNH3031INS TX24/2421Z TN04/2512Z LAST NO AMDS AFT 2321 NEXT 2511
KCOS 
18nm SE 
241724Z 2418/2518 16012G22KT P6SM SKC FM242300 10008KT P6SM SKC FM250300 01007KT P6SM SKC FM250800 35014KT P6SM SCT080 FM251700 16008KT P6SM SCT080
NOTAMs
Click for the latest NOTAMs
NOTAMs are issued by the DoD/FAA and will open in a separate window not controlled by AirNav.

 

 
 

Would you like to see your business listed on this page?

 If your business provides an interesting product or service to pilots, flight crews, aircraft, or users of the Monument Helibase, you should consider listing it here.  To start the listing process, click on the button below
 
Add a business
 

Other Pages about Monument Helibase

Update a link
 
Copyright © AirNav, LLC. All rights reserved. Privacy Policy  Contact